sensor_id;sensor_type;location;lat;lon;timestamp;P1;durP1;ratioP1;P2;durP2;ratioP2
42866;SDS011;39461;40.948;73.006;2022-12-29T00:00:49;40.70;;;21.30;;
42866;SDS011;39461;40.948;73.006;2022-12-29T00:03:22;76.15;;;37.13;;
42866;SDS011;39461;40.948;73.006;2022-12-29T00:05:55;69.03;;;35.83;;
42866;SDS011;39461;40.948;73.006;2022-12-29T00:08:29;59.60;;;30.10;;
42866;SDS011;39461;40.948;73.006;2022-12-29T00:11:18;50.10;;;27.33;;
42866;SDS011;39461;40.948;73.006;2022-12-29T00:13:52;41.45;;;20.98;;
42866;SDS011;39461;40.948;73.006;2022-12-29T00:16:46;41.45;;;21.35;;
42866;SDS011;39461;40.948;73.006;2022-12-29T00:19:21;46.55;;;21.95;;
42866;SDS011;39461;40.948;73.006;2022-12-29T00:22:15;53.33;;;23.88;;
42866;SDS011;39461;40.948;73.006;2022-12-29T00:25:11;42.22;;;22.17;;
42866;SDS011;39461;40.948;73.006;2022-12-29T00:28:04;42.00;;;19.92;;
42866;SDS011;39461;40.948;73.006;2022-12-29T00:31:13;44.72;;;20.38;;
42866;SDS011;39461;40.948;73.006;2022-12-29T00:34:08;35.45;;;21.02;;
42866;SDS011;39461;40.948;73.006;2022-12-29T00:37:02;35.60;;;18.48;;
42866;SDS011;39461;40.948;73.006;2022-12-29T00:39:35;32.28;;;18.80;;
42866;SDS011;39461;40.948;73.006;2022-12-29T00:42:27;34.65;;;18.38;;
42866;SDS011;39461;40.948;73.006;2022-12-29T00:45:19;37.83;;;19.42;;
42866;SDS011;39461;40.948;73.006;2022-12-29T00:47:52;32.67;;;18.10;;
42866;SDS011;39461;40.948;73.006;2022-12-29T00:50:25;38.72;;;19.55;;
42866;SDS011;39461;40.948;73.006;2022-12-29T00:52:58;33.95;;;18.70;;
42866;SDS011;39461;40.948;73.006;2022-12-29T00:55:37;36.72;;;18.88;;
42866;SDS011;39461;40.948;73.006;2022-12-29T00:58:12;45.95;;;25.27;;
42866;SDS011;39461;40.948;73.006;2022-12-29T01:00:41;52.55;;;25.48;;
42866;SDS011;39461;40.948;73.006;2022-12-29T01:03:10;50.40;;;29.02;;
42866;SDS011;39461;40.948;73.006;2022-12-29T01:05:43;56.72;;;32.67;;
42866;SDS011;39461;40.948;73.006;2022-12-29T01:08:18;66.93;;;36.50;;
42866;SDS011;39461;40.948;73.006;2022-12-29T01:10:59;69.38;;;36.97;;
42866;SDS011;39461;40.948;73.006;2022-12-29T01:13:35;56.92;;;32.13;;
42866;SDS011;39461;40.948;73.006;2022-12-29T01:16:10;63.97;;;32.33;;
42866;SDS011;39461;40.948;73.006;2022-12-29T01:18:43;66.72;;;33.42;;
42866;SDS011;39461;40.948;73.006;2022-12-29T01:21:16;62.60;;;31.70;;
42866;SDS011;39461;40.948;73.006;2022-12-29T01:23:49;70.68;;;34.35;;
42866;SDS011;39461;40.948;73.006;2022-12-29T01:26:22;61.53;;;29.35;;
42866;SDS011;39461;40.948;73.006;2022-12-29T01:28:57;56.03;;;31.02;;
42866;SDS011;39461;40.948;73.006;2022-12-29T01:31:32;55.28;;;29.27;;
42866;SDS011;39461;40.948;73.006;2022-12-29T01:34:08;58.42;;;28.73;;
42866;SDS011;39461;40.948;73.006;2022-12-29T01:36:43;56.97;;;32.80;;
42866;SDS011;39461;40.948;73.006;2022-12-29T01:39:16;64.93;;;32.63;;
42866;SDS011;39461;40.948;73.006;2022-12-29T01:41:51;66.88;;;34.78;;
42866;SDS011;39461;40.948;73.006;2022-12-29T01:47:26;77.47;;;38.40;;
42866;SDS011;39461;40.948;73.006;2022-12-29T01:50:04;77.53;;;41.25;;
42866;SDS011;39461;40.948;73.006;2022-12-29T01:55:40;71.82;;;38.97;;
42866;SDS011;39461;40.948;73.006;2022-12-29T01:58:16;79.10;;;41.53;;
42866;SDS011;39461;40.948;73.006;2022-12-29T02:00:51;77.68;;;40.85;;
42866;SDS011;39461;40.948;73.006;2022-12-29T02:03:28;80.05;;;39.47;;
42866;SDS011;39461;40.948;73.006;2022-12-29T02:09:04;86.88;;;43.38;;
42866;SDS011;39461;40.948;73.006;2022-12-29T02:11:46;89.82;;;45.20;;
42866;SDS011;39461;40.948;73.006;2022-12-29T02:14:19;90.85;;;44.75;;
42866;SDS011;39461;40.948;73.006;2022-12-29T02:25:26;148.77;;;53.45;;
42866;SDS011;39461;40.948;73.006;2022-12-29T02:36:32;180.82;;;78.15;;
42866;SDS011;39461;40.948;73.006;2022-12-29T02:39:32;203.57;;;85.13;;
42866;SDS011;39461;40.948;73.006;2022-12-29T02:42:18;225.63;;;101.13;;
42866;SDS011;39461;40.948;73.006;2022-12-29T02:48:08;139.68;;;74.20;;
42866;SDS011;39461;40.948;73.006;2022-12-29T02:51:02;160.82;;;84.80;;
42866;SDS011;39461;40.948;73.006;2022-12-29T02:53:36;157.85;;;79.45;;
42866;SDS011;39461;40.948;73.006;2022-12-29T02:56:30;169.05;;;84.43;;
42866;SDS011;39461;40.948;73.006;2022-12-29T02:59:03;185.73;;;93.10;;
42866;SDS011;39461;40.948;73.006;2022-12-29T03:07:27;198.05;;;105.93;;
42866;SDS011;39461;40.948;73.006;2022-12-29T03:16:18;179.55;;;98.70;;
42866;SDS011;39461;40.948;73.006;2022-12-29T03:19:14;188.00;;;98.95;;
42866;SDS011;39461;40.948;73.006;2022-12-29T03:22:10;251.57;;;120.38;;
42866;SDS011;39461;40.948;73.006;2022-12-29T03:28:02;303.70;;;138.90;;
42866;SDS011;39461;40.948;73.006;2022-12-29T03:30:39;324.23;;;140.65;;
42866;SDS011;39461;40.948;73.006;2022-12-29T03:33:17;317.33;;;143.57;;
42866;SDS011;39461;40.948;73.006;2022-12-29T03:35:55;359.73;;;160.55;;
42866;SDS011;39461;40.948;73.006;2022-12-29T03:38:40;332.20;;;145.43;;
42866;SDS011;39461;40.948;73.006;2022-12-29T03:41:18;270.52;;;124.55;;
42866;SDS011;39461;40.948;73.006;2022-12-29T03:43:53;247.35;;;113.95;;
42866;SDS011;39461;40.948;73.006;2022-12-29T03:46:26;260.45;;;127.10;;
42866;SDS011;39461;40.948;73.006;2022-12-29T03:48:59;269.45;;;130.52;;
42866;SDS011;39461;40.948;73.006;2022-12-29T03:51:32;303.77;;;143.80;;
42866;SDS011;39461;40.948;73.006;2022-12-29T03:54:05;327.45;;;155.50;;
42866;SDS011;39461;40.948;73.006;2022-12-29T03:56:38;415.50;;;222.23;;
42866;SDS011;39461;40.948;73.006;2022-12-29T03:59:19;420.35;;;238.75;;
42866;SDS011;39461;40.948;73.006;2022-12-29T04:01:54;477.10;;;264.00;;
42866;SDS011;39461;40.948;73.006;2022-12-29T04:04:28;495.92;;;280.83;;
42866;SDS011;39461;40.948;73.006;2022-12-29T04:07:07;495.50;;;292.15;;
42866;SDS011;39461;40.948;73.006;2022-12-29T04:09:42;485.98;;;286.05;;
42866;SDS011;39461;40.948;73.006;2022-12-29T04:12:16;482.02;;;285.90;;
42866;SDS011;39461;40.948;73.006;2022-12-29T04:14:49;456.80;;;272.70;;
42866;SDS011;39461;40.948;73.006;2022-12-29T04:17:28;342.27;;;199.60;;
42866;SDS011;39461;40.948;73.006;2022-12-29T04:20:06;269.75;;;147.05;;
42866;SDS011;39461;40.948;73.006;2022-12-29T04:22:59;324.65;;;167.00;;
42866;SDS011;39461;40.948;73.006;2022-12-29T04:25:32;309.77;;;156.45;;
42866;SDS011;39461;40.948;73.006;2022-12-29T04:28:06;287.05;;;161.85;;
42866;SDS011;39461;40.948;73.006;2022-12-29T04:30:40;237.18;;;130.48;;
42866;SDS011;39461;40.948;73.006;2022-12-29T04:33:14;247.30;;;136.30;;
42866;SDS011;39461;40.948;73.006;2022-12-29T04:35:47;281.83;;;155.10;;
42866;SDS011;39461;40.948;73.006;2022-12-29T04:38:21;279.23;;;151.93;;
42866;SDS011;39461;40.948;73.006;2022-12-29T04:40:59;280.23;;;151.82;;
42866;SDS011;39461;40.948;73.006;2022-12-29T04:43:32;285.27;;;154.95;;
42866;SDS011;39461;40.948;73.006;2022-12-29T04:46:09;340.83;;;193.25;;
42866;SDS011;39461;40.948;73.006;2022-12-29T04:48:42;344.23;;;202.02;;
42866;SDS011;39461;40.948;73.006;2022-12-29T04:51:17;330.15;;;191.80;;
42866;SDS011;39461;40.948;73.006;2022-12-29T04:53:52;287.17;;;168.65;;
42866;SDS011;39461;40.948;73.006;2022-12-29T04:56:30;248.93;;;144.10;;
42866;SDS011;39461;40.948;73.006;2022-12-29T04:59:02;235.07;;;130.15;;
42866;SDS011;39461;40.948;73.006;2022-12-29T05:01:30;232.15;;;131.98;;
42866;SDS011;39461;40.948;73.006;2022-12-29T05:04:03;221.30;;;123.82;;
42866;SDS011;39461;40.948;73.006;2022-12-29T05:06:36;210.18;;;118.45;;
42866;SDS011;39461;40.948;73.006;2022-12-29T05:09:09;194.15;;;109.38;;
42866;SDS011;39461;40.948;73.006;2022-12-29T05:11:47;160.80;;;93.10;;
42866;SDS011;39461;40.948;73.006;2022-12-29T05:14:22;124.80;;;72.05;;
42866;SDS011;39461;40.948;73.006;2022-12-29T05:16:57;105.55;;;57.55;;
42866;SDS011;39461;40.948;73.006;2022-12-29T05:19:32;103.10;;;57.90;;
42866;SDS011;39461;40.948;73.006;2022-12-29T05:22:07;94.80;;;53.45;;
42866;SDS011;39461;40.948;73.006;2022-12-29T05:24:40;84.40;;;47.40;;
42866;SDS011;39461;40.948;73.006;2022-12-29T05:27:19;90.30;;;50.35;;
42866;SDS011;39461;40.948;73.006;2022-12-29T05:29:54;83.15;;;46.80;;
42866;SDS011;39461;40.948;73.006;2022-12-29T05:32:28;89.60;;;52.28;;
42866;SDS011;39461;40.948;73.006;2022-12-29T05:35:03;97.80;;;58.75;;
42866;SDS011;39461;40.948;73.006;2022-12-29T05:37:38;106.30;;;60.67;;
42866;SDS011;39461;40.948;73.006;2022-12-29T05:40:14;110.57;;;62.80;;
42866;SDS011;39461;40.948;73.006;2022-12-29T05:42:49;127.78;;;71.30;;
42866;SDS011;39461;40.948;73.006;2022-12-29T05:45:22;126.05;;;71.07;;
42866;SDS011;39461;40.948;73.006;2022-12-29T05:47:55;125.45;;;66.85;;
42866;SDS011;39461;40.948;73.006;2022-12-29T05:50:28;122.05;;;71.10;;
42866;SDS011;39461;40.948;73.006;2022-12-29T05:53:01;123.50;;;72.03;;
42866;SDS011;39461;40.948;73.006;2022-12-29T05:55:34;142.13;;;79.90;;
42866;SDS011;39461;40.948;73.006;2022-12-29T05:58:09;125.63;;;74.35;;
42866;SDS011;39461;40.948;73.006;2022-12-29T06:00:43;116.05;;;64.57;;
42866;SDS011;39461;40.948;73.006;2022-12-29T06:03:18;132.27;;;76.07;;
42866;SDS011;39461;40.948;73.006;2022-12-29T06:08:53;146.32;;;82.85;;
42866;SDS011;39461;40.948;73.006;2022-12-29T06:11:27;127.32;;;73.68;;
42866;SDS011;39461;40.948;73.006;2022-12-29T06:14:00;129.05;;;70.70;;
42866;SDS011;39461;40.948;73.006;2022-12-29T06:16:35;131.23;;;73.45;;
42866;SDS011;39461;40.948;73.006;2022-12-29T06:19:10;173.63;;;103.30;;
42866;SDS011;39461;40.948;73.006;2022-12-29T06:21:45;137.18;;;78.35;;
42866;SDS011;39461;40.948;73.006;2022-12-29T06:24:20;122.90;;;67.50;;
42866;SDS011;39461;40.948;73.006;2022-12-29T06:26:56;133.48;;;79.85;;
42866;SDS011;39461;40.948;73.006;2022-12-29T06:32:28;152.85;;;87.22;;
42866;SDS011;39461;40.948;73.006;2022-12-29T06:35:04;140.95;;;81.50;;
42866;SDS011;39461;40.948;73.006;2022-12-29T06:37:44;136.38;;;78.25;;
42866;SDS011;39461;40.948;73.006;2022-12-29T06:40:17;141.18;;;79.78;;
42866;SDS011;39461;40.948;73.006;2022-12-29T06:42:52;146.35;;;82.95;;
42866;SDS011;39461;40.948;73.006;2022-12-29T06:45:25;150.30;;;85.57;;
42866;SDS011;39461;40.948;73.006;2022-12-29T06:48:00;144.68;;;83.93;;
42866;SDS011;39461;40.948;73.006;2022-12-29T06:50:35;141.57;;;83.20;;
42866;SDS011;39461;40.948;73.006;2022-12-29T06:53:09;146.15;;;86.15;;
42866;SDS011;39461;40.948;73.006;2022-12-29T06:55:42;153.63;;;90.15;;
42866;SDS011;39461;40.948;73.006;2022-12-29T06:58:15;167.32;;;96.00;;
42866;SDS011;39461;40.948;73.006;2022-12-29T07:00:42;143.23;;;85.13;;
42866;SDS011;39461;40.948;73.006;2022-12-29T07:03:11;171.07;;;100.45;;
42866;SDS011;39461;40.948;73.006;2022-12-29T07:05:50;159.23;;;95.80;;
42866;SDS011;39461;40.948;73.006;2022-12-29T07:08:25;151.70;;;91.65;;
42866;SDS011;39461;40.948;73.006;2022-12-29T07:11:05;159.77;;;92.38;;
42866;SDS011;39461;40.948;73.006;2022-12-29T07:13:44;162.65;;;95.65;;
42866;SDS011;39461;40.948;73.006;2022-12-29T07:16:17;168.88;;;102.43;;
42866;SDS011;39461;40.948;73.006;2022-12-29T07:18:51;164.30;;;100.18;;
42866;SDS011;39461;40.948;73.006;2022-12-29T07:21:24;157.23;;;96.93;;
42866;SDS011;39461;40.948;73.006;2022-12-29T07:23:59;156.60;;;93.28;;
42866;SDS011;39461;40.948;73.006;2022-12-29T07:26:33;141.63;;;89.35;;
42866;SDS011;39461;40.948;73.006;2022-12-29T07:29:14;158.05;;;93.20;;
42866;SDS011;39461;40.948;73.006;2022-12-29T07:31:47;172.55;;;102.03;;
42866;SDS011;39461;40.948;73.006;2022-12-29T07:34:22;154.73;;;93.63;;
42866;SDS011;39461;40.948;73.006;2022-12-29T07:36:55;150.77;;;91.03;;
42866;SDS011;39461;40.948;73.006;2022-12-29T07:39:28;161.38;;;95.53;;
42866;SDS011;39461;40.948;73.006;2022-12-29T07:42:02;168.45;;;101.57;;
42866;SDS011;39461;40.948;73.006;2022-12-29T07:44:35;167.80;;;99.75;;
42866;SDS011;39461;40.948;73.006;2022-12-29T07:47:08;173.27;;;102.88;;
42866;SDS011;39461;40.948;73.006;2022-12-29T07:49:41;174.95;;;106.38;;
42866;SDS011;39461;40.948;73.006;2022-12-29T07:52:14;179.40;;;107.43;;
42866;SDS011;39461;40.948;73.006;2022-12-29T07:54:49;193.30;;;116.07;;
42866;SDS011;39461;40.948;73.006;2022-12-29T07:57:24;218.80;;;131.57;;
42866;SDS011;39461;40.948;73.006;2022-12-29T08:00:02;229.25;;;137.93;;
42866;SDS011;39461;40.948;73.006;2022-12-29T08:02:36;250.57;;;153.48;;
42866;SDS011;39461;40.948;73.006;2022-12-29T08:05:11;246.85;;;150.57;;
42866;SDS011;39461;40.948;73.006;2022-12-29T08:07:46;246.43;;;155.43;;
42866;SDS011;39461;40.948;73.006;2022-12-29T08:10:22;242.95;;;145.02;;
42866;SDS011;39461;40.948;73.006;2022-12-29T08:12:57;233.60;;;137.40;;
42866;SDS011;39461;40.948;73.006;2022-12-29T08:15:32;218.82;;;130.23;;
42866;SDS011;39461;40.948;73.006;2022-12-29T08:18:06;195.93;;;111.20;;
42866;SDS011;39461;40.948;73.006;2022-12-29T08:20:41;175.05;;;107.28;;
42866;SDS011;39461;40.948;73.006;2022-12-29T08:26:17;189.48;;;107.38;;
42866;SDS011;39461;40.948;73.006;2022-12-29T08:31:50;198.43;;;106.65;;
42866;SDS011;39461;40.948;73.006;2022-12-29T08:34:23;183.35;;;108.88;;
42866;SDS011;39461;40.948;73.006;2022-12-29T08:39:58;213.05;;;123.10;;
42866;SDS011;39461;40.948;73.006;2022-12-29T08:42:37;189.07;;;110.60;;
42866;SDS011;39461;40.948;73.006;2022-12-29T08:45:12;156.45;;;94.13;;
42866;SDS011;39461;40.948;73.006;2022-12-29T08:47:48;149.10;;;87.15;;
42866;SDS011;39461;40.948;73.006;2022-12-29T08:50:23;163.15;;;93.45;;
42866;SDS011;39461;40.948;73.006;2022-12-29T08:52:58;160.48;;;90.05;;
42866;SDS011;39461;40.948;73.006;2022-12-29T08:55:33;156.98;;;92.40;;
42866;SDS011;39461;40.948;73.006;2022-12-29T08:58:05;174.65;;;94.60;;
42866;SDS011;39461;40.948;73.006;2022-12-29T09:00:32;172.30;;;96.40;;
42866;SDS011;39461;40.948;73.006;2022-12-29T09:03:00;218.60;;;126.38;;
42866;SDS011;39461;40.948;73.006;2022-12-29T09:05:35;217.05;;;121.28;;
42866;SDS011;39461;40.948;73.006;2022-12-29T09:11:07;172.30;;;99.45;;
42866;SDS011;39461;40.948;73.006;2022-12-29T09:13:42;178.60;;;99.88;;
42866;SDS011;39461;40.948;73.006;2022-12-29T09:16:18;165.18;;;100.22;;
42866;SDS011;39461;40.948;73.006;2022-12-29T09:18:52;189.75;;;108.07;;
42866;SDS011;39461;40.948;73.006;2022-12-29T09:21:25;184.45;;;109.03;;
42866;SDS011;39461;40.948;73.006;2022-12-29T09:24:00;202.73;;;120.05;;
42866;SDS011;39461;40.948;73.006;2022-12-29T09:32:32;230.05;;;130.57;;
42866;SDS011;39461;40.948;73.006;2022-12-29T09:35:05;214.70;;;124.93;;
42866;SDS011;39461;40.948;73.006;2022-12-29T09:37:40;235.30;;;137.10;;
42866;SDS011;39461;40.948;73.006;2022-12-29T09:40:49;240.95;;;134.65;;
42866;SDS011;39461;40.948;73.006;2022-12-29T09:43:59;226.85;;;127.82;;
42866;SDS011;39461;40.948;73.006;2022-12-29T09:46:29;217.43;;;126.75;;
42866;SDS011;39461;40.948;73.006;2022-12-29T09:51:40;234.65;;;138.35;;
42866;SDS011;39461;40.948;73.006;2022-12-29T09:54:26;255.35;;;146.05;;
42866;SDS011;39461;40.948;73.006;2022-12-29T09:59:59;258.33;;;146.27;;
42866;SDS011;39461;40.948;73.006;2022-12-29T10:02:58;260.23;;;145.85;;
42866;SDS011;39461;40.948;73.006;2022-12-29T10:08:21;264.02;;;153.43;;
42866;SDS011;39461;40.948;73.006;2022-12-29T10:11:21;266.15;;;156.95;;
42866;SDS011;39461;40.948;73.006;2022-12-29T10:14:05;285.65;;;162.38;;
42866;SDS011;39461;40.948;73.006;2022-12-29T10:16:47;298.58;;;168.75;;
42866;SDS011;39461;40.948;73.006;2022-12-29T10:25:02;307.95;;;180.07;;
42866;SDS011;39461;40.948;73.006;2022-12-29T10:27:38;319.52;;;183.98;;
42866;SDS011;39461;40.948;73.006;2022-12-29T10:30:14;317.98;;;185.35;;
42866;SDS011;39461;40.948;73.006;2022-12-29T10:32:54;329.08;;;192.38;;
42866;SDS011;39461;40.948;73.006;2022-12-29T10:35:36;335.70;;;196.95;;
42866;SDS011;39461;40.948;73.006;2022-12-29T10:41:32;340.98;;;201.80;;
42866;SDS011;39461;40.948;73.006;2022-12-29T10:43:46;350.40;;;199.70;;
42866;SDS011;39461;40.948;73.006;2022-12-29T10:49:20;284.50;;;151.10;;
42866;SDS011;39461;40.948;73.006;2022-12-29T10:51:54;287.88;;;153.00;;
42866;SDS011;39461;40.948;73.006;2022-12-29T10:59:58;290.50;;;160.85;;
42866;SDS011;39461;40.948;73.006;2022-12-29T11:05:38;276.00;;;148.18;;
42866;SDS011;39461;40.948;73.006;2022-12-29T11:08:12;262.13;;;142.82;;
42866;SDS011;39461;40.948;73.006;2022-12-29T11:11:01;263.05;;;145.50;;
42866;SDS011;39461;40.948;73.006;2022-12-29T11:13:48;313.73;;;152.00;;
42866;SDS011;39461;40.948;73.006;2022-12-29T11:16:32;278.33;;;151.80;;
42866;SDS011;39461;40.948;73.006;2022-12-29T11:19:21;286.67;;;153.55;;
42866;SDS011;39461;40.948;73.006;2022-12-29T11:24:53;303.05;;;162.60;;
42866;SDS011;39461;40.948;73.006;2022-12-29T11:27:27;300.60;;;165.15;;
42866;SDS011;39461;40.948;73.006;2022-12-29T11:30:00;292.70;;;156.18;;
42866;SDS011;39461;40.948;73.006;2022-12-29T11:32:35;302.55;;;161.85;;
42866;SDS011;39461;40.948;73.006;2022-12-29T11:35:18;315.63;;;166.05;;
42866;SDS011;39461;40.948;73.006;2022-12-29T11:38:04;314.40;;;165.65;;
42866;SDS011;39461;40.948;73.006;2022-12-29T11:40:31;322.98;;;167.73;;
42866;SDS011;39461;40.948;73.006;2022-12-29T11:43:06;326.92;;;178.02;;
42866;SDS011;39461;40.948;73.006;2022-12-29T11:45:41;331.85;;;173.30;;
42866;SDS011;39461;40.948;73.006;2022-12-29T11:48:20;335.48;;;173.50;;
42866;SDS011;39461;40.948;73.006;2022-12-29T11:50:55;346.88;;;184.80;;
42866;SDS011;39461;40.948;73.006;2022-12-29T11:56:16;368.88;;;184.70;;
42866;SDS011;39461;40.948;73.006;2022-12-29T11:58:53;368.70;;;188.82;;
42866;SDS011;39461;40.948;73.006;2022-12-29T12:01:30;366.70;;;190.05;;
42866;SDS011;39461;40.948;73.006;2022-12-29T12:04:07;368.52;;;189.82;;
42866;SDS011;39461;40.948;73.006;2022-12-29T12:06:52;367.27;;;184.35;;
42866;SDS011;39461;40.948;73.006;2022-12-29T12:09:32;395.48;;;200.55;;
42866;SDS011;39461;40.948;73.006;2022-12-29T12:12:15;363.38;;;186.73;;
42866;SDS011;39461;40.948;73.006;2022-12-29T12:14:54;385.38;;;195.02;;
42866;SDS011;39461;40.948;73.006;2022-12-29T12:20:38;582.30;;;293.65;;
42866;SDS011;39461;40.948;73.006;2022-12-29T12:26:21;515.40;;;268.33;;
42866;SDS011;39461;40.948;73.006;2022-12-29T12:29:01;504.40;;;269.05;;
42866;SDS011;39461;40.948;73.006;2022-12-29T12:31:43;519.63;;;273.33;;
42866;SDS011;39461;40.948;73.006;2022-12-29T12:34:41;531.65;;;275.02;;
42866;SDS011;39461;40.948;73.006;2022-12-29T12:46:01;556.78;;;310.27;;
42866;SDS011;39461;40.948;73.006;2022-12-29T12:51:39;500.33;;;286.75;;
42866;SDS011;39461;40.948;73.006;2022-12-29T12:56:55;488.73;;;269.35;;
42866;SDS011;39461;40.948;73.006;2022-12-29T13:04:53;516.63;;;282.90;;
42866;SDS011;39461;40.948;73.006;2022-12-29T13:18:48;609.33;;;365.17;;
42866;SDS011;39461;40.948;73.006;2022-12-29T13:22:15;588.15;;;352.83;;
42866;SDS011;39461;40.948;73.006;2022-12-29T13:27:20;562.10;;;339.08;;
42866;SDS011;39461;40.948;73.006;2022-12-29T13:37:59;592.78;;;348.35;;
42866;SDS011;39461;40.948;73.006;2022-12-29T13:40:35;572.50;;;344.08;;
42866;SDS011;39461;40.948;73.006;2022-12-29T13:43:11;581.35;;;345.15;;
42866;SDS011;39461;40.948;73.006;2022-12-29T13:45:50;584.55;;;350.42;;
42866;SDS011;39461;40.948;73.006;2022-12-29T13:48:38;575.67;;;350.52;;
42866;SDS011;39461;40.948;73.006;2022-12-29T13:51:14;573.45;;;344.77;;
42866;SDS011;39461;40.948;73.006;2022-12-29T13:56:39;593.33;;;349.40;;
42866;SDS011;39461;40.948;73.006;2022-12-29T14:00:16;591.00;;;352.02;;
42866;SDS011;39461;40.948;73.006;2022-12-29T14:02:19;602.95;;;351.30;;
42866;SDS011;39461;40.948;73.006;2022-12-29T14:04:58;603.97;;;363.83;;
42866;SDS011;39461;40.948;73.006;2022-12-29T14:07:36;625.90;;;363.30;;
42866;SDS011;39461;40.948;73.006;2022-12-29T14:10:28;624.72;;;361.17;;
42866;SDS011;39461;40.948;73.006;2022-12-29T14:16:03;663.00;;;382.00;;
42866;SDS011;39461;40.948;73.006;2022-12-29T14:18:41;650.38;;;372.17;;
42866;SDS011;39461;40.948;73.006;2022-12-29T14:23:50;629.35;;;371.40;;
42866;SDS011;39461;40.948;73.006;2022-12-29T14:32:00;695.65;;;393.52;;
42866;SDS011;39461;40.948;73.006;2022-12-29T14:34:43;642.38;;;361.27;;
42866;SDS011;39461;40.948;73.006;2022-12-29T14:40:24;469.15;;;267.30;;
42866;SDS011;39461;40.948;73.006;2022-12-29T14:43:05;430.38;;;249.02;;
42866;SDS011;39461;40.948;73.006;2022-12-29T14:45:52;439.10;;;252.85;;
42866;SDS011;39461;40.948;73.006;2022-12-29T14:48:39;423.65;;;240.65;;
42866;SDS011;39461;40.948;73.006;2022-12-29T14:51:32;450.02;;;248.23;;
42866;SDS011;39461;40.948;73.006;2022-12-29T14:57:02;477.77;;;262.65;;
42866;SDS011;39461;40.948;73.006;2022-12-29T14:59:36;477.00;;;268.23;;
42866;SDS011;39461;40.948;73.006;2022-12-29T15:02:14;485.80;;;264.75;;
42866;SDS011;39461;40.948;73.006;2022-12-29T15:04:46;484.10;;;268.00;;
42866;SDS011;39461;40.948;73.006;2022-12-29T15:07:22;494.98;;;276.30;;
42866;SDS011;39461;40.948;73.006;2022-12-29T15:09:58;487.80;;;274.15;;
42866;SDS011;39461;40.948;73.006;2022-12-29T15:12:43;492.70;;;272.35;;
42866;SDS011;39461;40.948;73.006;2022-12-29T15:15:20;511.10;;;291.63;;
42866;SDS011;39461;40.948;73.006;2022-12-29T15:17:55;523.58;;;299.52;;
42866;SDS011;39461;40.948;73.006;2022-12-29T15:20:30;527.80;;;296.83;;
42866;SDS011;39461;40.948;73.006;2022-12-29T15:23:09;520.92;;;289.35;;
42866;SDS011;39461;40.948;73.006;2022-12-29T15:25:47;522.22;;;293.35;;
42866;SDS011;39461;40.948;73.006;2022-12-29T15:28:23;538.15;;;291.20;;
42866;SDS011;39461;40.948;73.006;2022-12-29T15:31:03;523.22;;;293.10;;
42866;SDS011;39461;40.948;73.006;2022-12-29T15:33:41;521.97;;;285.65;;
42866;SDS011;39461;40.948;73.006;2022-12-29T15:36:22;535.40;;;291.60;;
42866;SDS011;39461;40.948;73.006;2022-12-29T15:38:59;546.60;;;306.90;;
42866;SDS011;39461;40.948;73.006;2022-12-29T15:44:37;556.05;;;314.35;;
42866;SDS011;39461;40.948;73.006;2022-12-29T15:47:11;558.38;;;318.30;;
42866;SDS011;39461;40.948;73.006;2022-12-29T15:49:52;542.40;;;315.98;;
42866;SDS011;39461;40.948;73.006;2022-12-29T15:52:30;549.35;;;319.40;;
42866;SDS011;39461;40.948;73.006;2022-12-29T15:55:09;553.60;;;318.55;;
42866;SDS011;39461;40.948;73.006;2022-12-29T15:57:55;548.58;;;312.98;;
42866;SDS011;39461;40.948;73.006;2022-12-29T16:00:34;549.67;;;312.30;;
42866;SDS011;39461;40.948;73.006;2022-12-29T16:03:10;497.08;;;286.90;;
42866;SDS011;39461;40.948;73.006;2022-12-29T16:05:51;538.08;;;304.45;;
42866;SDS011;39461;40.948;73.006;2022-12-29T16:11:03;557.40;;;320.33;;
42866;SDS011;39461;40.948;73.006;2022-12-29T16:13:42;554.20;;;314.55;;
42866;SDS011;39461;40.948;73.006;2022-12-29T16:16:26;525.10;;;302.98;;
42866;SDS011;39461;40.948;73.006;2022-12-29T16:19:13;526.10;;;303.15;;
42866;SDS011;39461;40.948;73.006;2022-12-29T16:21:49;521.10;;;292.45;;
42866;SDS011;39461;40.948;73.006;2022-12-29T16:24:23;525.72;;;293.63;;
42866;SDS011;39461;40.948;73.006;2022-12-29T16:27:06;512.17;;;290.55;;
42866;SDS011;39461;40.948;73.006;2022-12-29T16:29:41;504.50;;;289.42;;
42866;SDS011;39461;40.948;73.006;2022-12-29T16:32:24;482.85;;;284.30;;
42866;SDS011;39461;40.948;73.006;2022-12-29T16:35:19;482.98;;;276.45;;
42866;SDS011;39461;40.948;73.006;2022-12-29T16:38:12;457.55;;;264.50;;
42866;SDS011;39461;40.948;73.006;2022-12-29T16:43:31;579.85;;;339.15;;
42866;SDS011;39461;40.948;73.006;2022-12-29T16:46:18;610.08;;;361.13;;
42866;SDS011;39461;40.948;73.006;2022-12-29T16:48:57;626.70;;;372.00;;
42866;SDS011;39461;40.948;73.006;2022-12-29T16:51:34;657.00;;;394.52;;
42866;SDS011;39461;40.948;73.006;2022-12-29T16:54:17;646.85;;;390.13;;
42866;SDS011;39461;40.948;73.006;2022-12-29T16:56:53;644.10;;;390.45;;
42866;SDS011;39461;40.948;73.006;2022-12-29T16:59:37;665.00;;;393.85;;
42866;SDS011;39461;40.948;73.006;2022-12-29T17:02:06;658.38;;;393.90;;
42866;SDS011;39461;40.948;73.006;2022-12-29T17:04:38;660.88;;;408.88;;
42866;SDS011;39461;40.948;73.006;2022-12-29T17:07:18;659.70;;;400.50;;
42866;SDS011;39461;40.948;73.006;2022-12-29T17:09:51;667.72;;;400.98;;
42866;SDS011;39461;40.948;73.006;2022-12-29T17:12:25;643.88;;;395.48;;
42866;SDS011;39461;40.948;73.006;2022-12-29T17:15:03;657.33;;;397.17;;
42866;SDS011;39461;40.948;73.006;2022-12-29T17:17:43;611.45;;;370.50;;
42866;SDS011;39461;40.948;73.006;2022-12-29T17:20:21;543.97;;;315.83;;
42866;SDS011;39461;40.948;73.006;2022-12-29T17:22:58;486.17;;;276.67;;
42866;SDS011;39461;40.948;73.006;2022-12-29T17:25:34;488.02;;;284.23;;
42866;SDS011;39461;40.948;73.006;2022-12-29T17:28:23;484.85;;;278.65;;
42866;SDS011;39461;40.948;73.006;2022-12-29T17:31:00;491.83;;;281.52;;
42866;SDS011;39461;40.948;73.006;2022-12-29T17:33:34;496.92;;;282.30;;
42866;SDS011;39461;40.948;73.006;2022-12-29T17:39:09;481.67;;;274.70;;
42866;SDS011;39461;40.948;73.006;2022-12-29T17:41:45;491.00;;;272.80;;
42866;SDS011;39461;40.948;73.006;2022-12-29T17:44:20;477.55;;;270.33;;
42866;SDS011;39461;40.948;73.006;2022-12-29T17:46:55;474.50;;;271.77;;
42866;SDS011;39461;40.948;73.006;2022-12-29T17:49:29;482.67;;;267.30;;
42866;SDS011;39461;40.948;73.006;2022-12-29T17:52:02;469.10;;;265.27;;